Terminal Aerodrome Forecast
Issued by NWS Melbourne, FL

Home | Current Version | Previous Version | Text Only | Print | Product List | Glossary On
Versions: 1 2 3 4 5 6 7 8 9 10 11 12 13
000
FTUS42 KMLB 200500
TAFDAB
TAF
KDAB 200528Z 2006/2106 06007KT P6SM VCSH SCT040 BKN060
     FM201400 08006KT P6SM VCSH BKN040 BKN060
     FM202200 VRB03KT P6SM SCT040 BKN250=

USA.gov is the U.S. government's official web portal to all federal, state and local government web resources and services.